sensor_id;sensor_type;location;lat;lon;timestamp;P1;durP1;ratioP1;P2;durP2;ratioP2
51618;SDS011;38518;53.164;5.430;2024-01-06T00:01:49;17.02;;;10.52;;
51618;SDS011;38518;53.164;5.430;2024-01-06T00:04:15;17.10;;;12.27;;
51618;SDS011;38518;53.164;5.430;2024-01-06T00:06:41;16.38;;;10.20;;
51618;SDS011;38518;53.164;5.430;2024-01-06T00:09:07;15.65;;;11.18;;
51618;SDS011;38518;53.164;5.430;2024-01-06T00:11:32;17.80;;;15.32;;
51618;SDS011;38518;53.164;5.430;2024-01-06T00:13:58;15.68;;;11.43;;
51618;SDS011;38518;53.164;5.430;2024-01-06T00:16:24;16.95;;;12.02;;
51618;SDS011;38518;53.164;5.430;2024-01-06T00:18:50;18.50;;;14.30;;
51618;SDS011;38518;53.164;5.430;2024-01-06T00:21:16;16.77;;;12.00;;
51618;SDS011;38518;53.164;5.430;2024-01-06T00:23:41;17.60;;;14.57;;
51618;SDS011;38518;53.164;5.430;2024-01-06T00:26:07;17.38;;;11.57;;
51618;SDS011;38518;53.164;5.430;2024-01-06T00:28:34;16.95;;;11.35;;
51618;SDS011;38518;53.164;5.430;2024-01-06T00:31:00;19.08;;;11.00;;
51618;SDS011;38518;53.164;5.430;2024-01-06T00:33:26;18.00;;;10.68;;
51618;SDS011;38518;53.164;5.430;2024-01-06T00:35:52;16.88;;;14.23;;
51618;SDS011;38518;53.164;5.430;2024-01-06T00:38:18;15.98;;;11.23;;
51618;SDS011;38518;53.164;5.430;2024-01-06T00:40:45;21.85;;;11.68;;
51618;SDS011;38518;53.164;5.430;2024-01-06T00:43:10;16.52;;;11.48;;
51618;SDS011;38518;53.164;5.430;2024-01-06T00:45:37;18.00;;;11.50;;
51618;SDS011;38518;53.164;5.430;2024-01-06T00:48:03;19.45;;;10.75;;
51618;SDS011;38518;53.164;5.430;2024-01-06T00:50:29;17.35;;;11.60;;
51618;SDS011;38518;53.164;5.430;2024-01-06T00:52:55;17.95;;;11.45;;
51618;SDS011;38518;53.164;5.430;2024-01-06T00:55:21;19.00;;;12.45;;
51618;SDS011;38518;53.164;5.430;2024-01-06T00:57:47;17.45;;;11.77;;
51618;SDS011;38518;53.164;5.430;2024-01-06T01:00:13;15.32;;;10.65;;
51618;SDS011;38518;53.164;5.430;2024-01-06T01:02:40;17.65;;;10.50;;
51618;SDS011;38518;53.164;5.430;2024-01-06T01:05:06;19.80;;;11.65;;
51618;SDS011;38518;53.164;5.430;2024-01-06T01:07:35;20.65;;;15.32;;
51618;SDS011;38518;53.164;5.430;2024-01-06T01:10:01;17.85;;;15.27;;
51618;SDS011;38518;53.164;5.430;2024-01-06T01:12:27;15.88;;;11.32;;
51618;SDS011;38518;53.164;5.430;2024-01-06T01:14:53;18.70;;;12.40;;
51618;SDS011;38518;53.164;5.430;2024-01-06T01:17:19;18.23;;;15.88;;
51618;SDS011;38518;53.164;5.430;2024-01-06T01:19:45;24.30;;;12.85;;
51618;SDS011;38518;53.164;5.430;2024-01-06T01:22:11;18.80;;;16.90;;
51618;SDS011;38518;53.164;5.430;2024-01-06T01:24:37;20.27;;;12.80;;
51618;SDS011;38518;53.164;5.430;2024-01-06T01:27:02;16.02;;;12.52;;
51618;SDS011;38518;53.164;5.430;2024-01-06T01:29:28;21.35;;;12.13;;
51618;SDS011;38518;53.164;5.430;2024-01-06T01:31:54;16.83;;;13.10;;
51618;SDS011;38518;53.164;5.430;2024-01-06T01:34:20;20.77;;;17.08;;
51618;SDS011;38518;53.164;5.430;2024-01-06T01:36:46;20.85;;;12.18;;
51618;SDS011;38518;53.164;5.430;2024-01-06T01:39:11;19.60;;;12.55;;
51618;SDS011;38518;53.164;5.430;2024-01-06T01:41:37;22.88;;;17.35;;
51618;SDS011;38518;53.164;5.430;2024-01-06T01:44:04;22.88;;;12.25;;
51618;SDS011;38518;53.164;5.430;2024-01-06T01:46:30;20.92;;;13.30;;
51618;SDS011;38518;53.164;5.430;2024-01-06T01:48:57;17.73;;;12.73;;
51618;SDS011;38518;53.164;5.430;2024-01-06T01:51:24;17.27;;;11.18;;
51618;SDS011;38518;53.164;5.430;2024-01-06T01:53:52;18.50;;;11.43;;
51618;SDS011;38518;53.164;5.430;2024-01-06T01:56:19;19.30;;;10.95;;
51618;SDS011;38518;53.164;5.430;2024-01-06T01:58:46;16.25;;;11.52;;
51618;SDS011;38518;53.164;5.430;2024-01-06T02:01:12;16.92;;;11.40;;
51618;SDS011;38518;53.164;5.430;2024-01-06T02:03:41;16.15;;;11.02;;
51618;SDS011;38518;53.164;5.430;2024-01-06T02:06:10;21.15;;;13.77;;
51618;SDS011;38518;53.164;5.430;2024-01-06T02:08:36;15.18;;;12.05;;
51618;SDS011;38518;53.164;5.430;2024-01-06T02:11:02;14.90;;;8.88;;
51618;SDS011;38518;53.164;5.430;2024-01-06T02:13:32;13.35;;;11.95;;
51618;SDS011;38518;53.164;5.430;2024-01-06T02:16:00;14.90;;;12.80;;
51618;SDS011;38518;53.164;5.430;2024-01-06T02:18:27;15.38;;;10.55;;
51618;SDS011;38518;53.164;5.430;2024-01-06T02:20:53;14.75;;;13.15;;
51618;SDS011;38518;53.164;5.430;2024-01-06T02:23:26;12.38;;;10.00;;
51618;SDS011;38518;53.164;5.430;2024-01-06T02:25:53;16.13;;;9.98;;
51618;SDS011;38518;53.164;5.430;2024-01-06T02:28:19;15.90;;;9.88;;
51618;SDS011;38518;53.164;5.430;2024-01-06T02:30:45;18.52;;;12.68;;
51618;SDS011;38518;53.164;5.430;2024-01-06T02:33:11;14.25;;;9.95;;
51618;SDS011;38518;53.164;5.430;2024-01-06T02:35:37;15.93;;;10.30;;
51618;SDS011;38518;53.164;5.430;2024-01-06T02:38:03;15.80;;;13.32;;
51618;SDS011;38518;53.164;5.430;2024-01-06T02:40:28;17.08;;;10.88;;
51618;SDS011;38518;53.164;5.430;2024-01-06T02:42:54;15.43;;;12.00;;
51618;SDS011;38518;53.164;5.430;2024-01-06T02:45:20;16.02;;;10.27;;
51618;SDS011;38518;53.164;5.430;2024-01-06T02:47:46;15.18;;;9.32;;
51618;SDS011;38518;53.164;5.430;2024-01-06T02:50:12;14.25;;;9.48;;
51618;SDS011;38518;53.164;5.430;2024-01-06T02:52:37;12.68;;;8.65;;
51618;SDS011;38518;53.164;5.430;2024-01-06T02:55:03;12.77;;;8.10;;
51618;SDS011;38518;53.164;5.430;2024-01-06T02:57:29;10.25;;;8.10;;
51618;SDS011;38518;53.164;5.430;2024-01-06T02:59:55;11.52;;;8.30;;
51618;SDS011;38518;53.164;5.430;2024-01-06T03:02:22;13.40;;;9.00;;
51618;SDS011;38518;53.164;5.430;2024-01-06T03:04:48;13.40;;;10.20;;
51618;SDS011;38518;53.164;5.430;2024-01-06T03:07:13;14.98;;;8.40;;
51618;SDS011;38518;53.164;5.430;2024-01-06T03:09:39;12.60;;;7.90;;
51618;SDS011;38518;53.164;5.430;2024-01-06T03:12:06;11.93;;;8.18;;
51618;SDS011;38518;53.164;5.430;2024-01-06T03:14:34;10.68;;;8.15;;
51618;SDS011;38518;53.164;5.430;2024-01-06T03:17:00;13.27;;;9.43;;
51618;SDS011;38518;53.164;5.430;2024-01-06T03:19:26;11.80;;;9.43;;
51618;SDS011;38518;53.164;5.430;2024-01-06T03:21:52;12.05;;;9.88;;
51618;SDS011;38518;53.164;5.430;2024-01-06T03:24:18;11.73;;;8.52;;
51618;SDS011;38518;53.164;5.430;2024-01-06T03:26:45;11.73;;;9.98;;
51618;SDS011;38518;53.164;5.430;2024-01-06T03:29:11;12.32;;;8.30;;
51618;SDS011;38518;53.164;5.430;2024-01-06T03:31:37;13.80;;;8.38;;
51618;SDS011;38518;53.164;5.430;2024-01-06T03:34:03;9.75;;;7.80;;
51618;SDS011;38518;53.164;5.430;2024-01-06T03:36:31;12.00;;;7.88;;
51618;SDS011;38518;53.164;5.430;2024-01-06T03:38:57;8.77;;;7.00;;
51618;SDS011;38518;53.164;5.430;2024-01-06T03:41:23;9.60;;;8.55;;
51618;SDS011;38518;53.164;5.430;2024-01-06T03:43:48;9.20;;;6.95;;
51618;SDS011;38518;53.164;5.430;2024-01-06T03:46:14;10.20;;;7.10;;
51618;SDS011;38518;53.164;5.430;2024-01-06T03:48:40;10.00;;;7.05;;
51618;SDS011;38518;53.164;5.430;2024-01-06T03:51:06;13.18;;;9.68;;
51618;SDS011;38518;53.164;5.430;2024-01-06T03:53:32;14.38;;;9.60;;
51618;SDS011;38518;53.164;5.430;2024-01-06T03:55:58;10.70;;;7.43;;
51618;SDS011;38518;53.164;5.430;2024-01-06T03:58:24;11.25;;;6.72;;
51618;SDS011;38518;53.164;5.430;2024-01-06T04:00:49;11.13;;;6.55;;
51618;SDS011;38518;53.164;5.430;2024-01-06T04:03:15;11.70;;;8.20;;
51618;SDS011;38518;53.164;5.430;2024-01-06T04:05:41;11.00;;;7.28;;
51618;SDS011;38518;53.164;5.430;2024-01-06T04:08:07;10.15;;;7.30;;
51618;SDS011;38518;53.164;5.430;2024-01-06T04:10:33;10.10;;;7.72;;
51618;SDS011;38518;53.164;5.430;2024-01-06T04:12:59;9.80;;;7.43;;
51618;SDS011;38518;53.164;5.430;2024-01-06T04:15:24;11.63;;;9.93;;
51618;SDS011;38518;53.164;5.430;2024-01-06T04:17:50;13.57;;;9.00;;
51618;SDS011;38518;53.164;5.430;2024-01-06T04:20:17;10.05;;;8.80;;
51618;SDS011;38518;53.164;5.430;2024-01-06T04:22:43;18.30;;;9.80;;
51618;SDS011;38518;53.164;5.430;2024-01-06T04:25:10;12.32;;;8.18;;
51618;SDS011;38518;53.164;5.430;2024-01-06T04:27:36;15.18;;;8.45;;
51618;SDS011;38518;53.164;5.430;2024-01-06T04:30:07;9.82;;;7.10;;
51618;SDS011;38518;53.164;5.430;2024-01-06T04:32:33;14.00;;;10.32;;
51618;SDS011;38518;53.164;5.430;2024-01-06T04:34:59;11.05;;;8.45;;
51618;SDS011;38518;53.164;5.430;2024-01-06T04:37:25;11.82;;;10.63;;
51618;SDS011;38518;53.164;5.430;2024-01-06T04:39:50;15.77;;;8.15;;
51618;SDS011;38518;53.164;5.430;2024-01-06T04:42:16;14.52;;;6.80;;
51618;SDS011;38518;53.164;5.430;2024-01-06T04:44:42;10.40;;;7.00;;
51618;SDS011;38518;53.164;5.430;2024-01-06T04:47:08;9.05;;;6.75;;
51618;SDS011;38518;53.164;5.430;2024-01-06T04:49:33;8.68;;;6.30;;
51618;SDS011;38518;53.164;5.430;2024-01-06T04:51:59;10.70;;;6.53;;
51618;SDS011;38518;53.164;5.430;2024-01-06T04:54:25;13.07;;;6.18;;
51618;SDS011;38518;53.164;5.430;2024-01-06T04:56:51;13.07;;;6.30;;
51618;SDS011;38518;53.164;5.430;2024-01-06T04:59:16;11.35;;;5.88;;
51618;SDS011;38518;53.164;5.430;2024-01-06T05:01:42;9.20;;;5.80;;
51618;SDS011;38518;53.164;5.430;2024-01-06T05:04:08;10.05;;;6.03;;
51618;SDS011;38518;53.164;5.430;2024-01-06T05:06:34;10.35;;;7.63;;
51618;SDS011;38518;53.164;5.430;2024-01-06T05:09:00;15.35;;;6.50;;
51618;SDS011;38518;53.164;5.430;2024-01-06T05:11:25;11.02;;;6.32;;
51618;SDS011;38518;53.164;5.430;2024-01-06T05:13:51;10.82;;;5.93;;
51618;SDS011;38518;53.164;5.430;2024-01-06T05:16:17;11.43;;;7.57;;
51618;SDS011;38518;53.164;5.430;2024-01-06T05:18:43;14.32;;;7.57;;
51618;SDS011;38518;53.164;5.430;2024-01-06T05:21:08;14.15;;;6.53;;
51618;SDS011;38518;53.164;5.430;2024-01-06T05:23:34;10.02;;;6.72;;
51618;SDS011;38518;53.164;5.430;2024-01-06T05:26:00;10.93;;;6.50;;
51618;SDS011;38518;53.164;5.430;2024-01-06T05:28:26;10.50;;;6.45;;
51618;SDS011;38518;53.164;5.430;2024-01-06T05:30:51;11.35;;;8.48;;
51618;SDS011;38518;53.164;5.430;2024-01-06T05:33:17;7.63;;;5.97;;
51618;SDS011;38518;53.164;5.430;2024-01-06T05:35:43;12.60;;;6.72;;
51618;SDS011;38518;53.164;5.430;2024-01-06T05:38:09;11.70;;;7.70;;
51618;SDS011;38518;53.164;5.430;2024-01-06T05:40:34;9.00;;;6.95;;
51618;SDS011;38518;53.164;5.430;2024-01-06T05:43:00;10.02;;;5.75;;
51618;SDS011;38518;53.164;5.430;2024-01-06T05:45:26;10.85;;;7.30;;
51618;SDS011;38518;53.164;5.430;2024-01-06T05:47:52;10.02;;;6.28;;
51618;SDS011;38518;53.164;5.430;2024-01-06T05:50:17;8.95;;;5.60;;
51618;SDS011;38518;53.164;5.430;2024-01-06T05:52:43;13.73;;;5.82;;
51618;SDS011;38518;53.164;5.430;2024-01-06T05:55:09;9.05;;;5.82;;
51618;SDS011;38518;53.164;5.430;2024-01-06T05:57:35;12.45;;;6.55;;
51618;SDS011;38518;53.164;5.430;2024-01-06T06:00:01;11.68;;;6.28;;
51618;SDS011;38518;53.164;5.430;2024-01-06T06:02:27;12.15;;;6.43;;
51618;SDS011;38518;53.164;5.430;2024-01-06T06:04:53;13.20;;;6.55;;
51618;SDS011;38518;53.164;5.430;2024-01-06T06:07:19;12.20;;;6.45;;
51618;SDS011;38518;53.164;5.430;2024-01-06T06:09:45;12.88;;;6.95;;
51618;SDS011;38518;53.164;5.430;2024-01-06T06:12:14;10.23;;;7.78;;
51618;SDS011;38518;53.164;5.430;2024-01-06T06:14:40;8.93;;;6.70;;
51618;SDS011;38518;53.164;5.430;2024-01-06T06:17:05;12.38;;;8.93;;
51618;SDS011;38518;53.164;5.430;2024-01-06T06:19:31;13.63;;;6.95;;
51618;SDS011;38518;53.164;5.430;2024-01-06T06:21:58;10.88;;;6.95;;
51618;SDS011;38518;53.164;5.430;2024-01-06T06:24:23;14.90;;;8.30;;
51618;SDS011;38518;53.164;5.430;2024-01-06T06:26:49;10.45;;;6.53;;
51618;SDS011;38518;53.164;5.430;2024-01-06T06:29:15;13.35;;;6.25;;
51618;SDS011;38518;53.164;5.430;2024-01-06T06:31:41;14.65;;;5.97;;
51618;SDS011;38518;53.164;5.430;2024-01-06T06:34:09;10.65;;;5.90;;
51618;SDS011;38518;53.164;5.430;2024-01-06T06:36:36;12.73;;;6.28;;
51618;SDS011;38518;53.164;5.430;2024-01-06T06:39:01;13.90;;;6.15;;
51618;SDS011;38518;53.164;5.430;2024-01-06T06:41:29;10.38;;;6.13;;
51618;SDS011;38518;53.164;5.430;2024-01-06T06:43:56;9.07;;;6.78;;
51618;SDS011;38518;53.164;5.430;2024-01-06T06:46:25;10.23;;;5.35;;
51618;SDS011;38518;53.164;5.430;2024-01-06T06:48:51;13.15;;;6.60;;
51618;SDS011;38518;53.164;5.430;2024-01-06T06:51:16;9.88;;;6.10;;
51618;SDS011;38518;53.164;5.430;2024-01-06T06:53:42;10.48;;;7.82;;
51618;SDS011;38518;53.164;5.430;2024-01-06T06:56:08;15.10;;;6.75;;
51618;SDS011;38518;53.164;5.430;2024-01-06T06:58:34;10.60;;;7.13;;
51618;SDS011;38518;53.164;5.430;2024-01-06T07:01:00;15.07;;;7.85;;
51618;SDS011;38518;53.164;5.430;2024-01-06T07:03:26;11.00;;;7.65;;
51618;SDS011;38518;53.164;5.430;2024-01-06T07:05:52;14.18;;;9.52;;
51618;SDS011;38518;53.164;5.430;2024-01-06T07:08:17;14.95;;;8.35;;
51618;SDS011;38518;53.164;5.430;2024-01-06T07:10:43;12.10;;;8.43;;
51618;SDS011;38518;53.164;5.430;2024-01-06T07:13:09;13.55;;;7.65;;
51618;SDS011;38518;53.164;5.430;2024-01-06T07:15:35;14.13;;;7.30;;
51618;SDS011;38518;53.164;5.430;2024-01-06T07:18:00;12.18;;;7.90;;
51618;SDS011;38518;53.164;5.430;2024-01-06T07:20:26;11.93;;;7.55;;
51618;SDS011;38518;53.164;5.430;2024-01-06T07:22:52;15.05;;;8.68;;
51618;SDS011;38518;53.164;5.430;2024-01-06T07:25:18;12.57;;;7.65;;
51618;SDS011;38518;53.164;5.430;2024-01-06T07:27:44;17.08;;;9.32;;
51618;SDS011;38518;53.164;5.430;2024-01-06T07:30:09;11.18;;;7.90;;
51618;SDS011;38518;53.164;5.430;2024-01-06T07:32:35;12.02;;;10.05;;
51618;SDS011;38518;53.164;5.430;2024-01-06T07:35:01;14.05;;;8.52;;
51618;SDS011;38518;53.164;5.430;2024-01-06T07:37:30;13.45;;;9.73;;
51618;SDS011;38518;53.164;5.430;2024-01-06T07:39:56;12.55;;;8.65;;
51618;SDS011;38518;53.164;5.430;2024-01-06T07:42:21;18.67;;;7.88;;
51618;SDS011;38518;53.164;5.430;2024-01-06T07:44:48;15.85;;;9.75;;
51618;SDS011;38518;53.164;5.430;2024-01-06T07:47:14;12.98;;;7.97;;
51618;SDS011;38518;53.164;5.430;2024-01-06T07:49:40;14.55;;;7.43;;
51618;SDS011;38518;53.164;5.430;2024-01-06T07:52:06;12.82;;;8.13;;
51618;SDS011;38518;53.164;5.430;2024-01-06T07:54:31;14.00;;;8.27;;
51618;SDS011;38518;53.164;5.430;2024-01-06T07:56:57;11.38;;;7.28;;
51618;SDS011;38518;53.164;5.430;2024-01-06T07:59:24;13.60;;;9.88;;
51618;SDS011;38518;53.164;5.430;2024-01-06T08:01:50;9.73;;;8.25;;
51618;SDS011;38518;53.164;5.430;2024-01-06T08:04:16;13.18;;;7.60;;
51618;SDS011;38518;53.164;5.430;2024-01-06T08:06:41;12.05;;;7.75;;
51618;SDS011;38518;53.164;5.430;2024-01-06T08:09:07;10.25;;;8.77;;
51618;SDS011;38518;53.164;5.430;2024-01-06T08:11:33;13.18;;;8.63;;
51618;SDS011;38518;53.164;5.430;2024-01-06T08:13:59;17.08;;;7.63;;
51618;SDS011;38518;53.164;5.430;2024-01-06T08:16:24;13.43;;;8.18;;
51618;SDS011;38518;53.164;5.430;2024-01-06T08:18:50;13.75;;;9.73;;
51618;SDS011;38518;53.164;5.430;2024-01-06T08:21:16;11.35;;;7.70;;
51618;SDS011;38518;53.164;5.430;2024-01-06T08:23:42;11.50;;;7.63;;
51618;SDS011;38518;53.164;5.430;2024-01-06T08:26:08;12.85;;;8.68;;
51618;SDS011;38518;53.164;5.430;2024-01-06T08:28:33;14.18;;;6.75;;
51618;SDS011;38518;53.164;5.430;2024-01-06T08:30:59;10.35;;;7.30;;
51618;SDS011;38518;53.164;5.430;2024-01-06T08:33:25;9.73;;;6.82;;
51618;SDS011;38518;53.164;5.430;2024-01-06T08:35:51;11.10;;;6.70;;
51618;SDS011;38518;53.164;5.430;2024-01-06T08:38:16;12.60;;;8.25;;
51618;SDS011;38518;53.164;5.430;2024-01-06T08:40:45;9.93;;;7.32;;
51618;SDS011;38518;53.164;5.430;2024-01-06T08:43:16;10.68;;;6.65;;
51618;SDS011;38518;53.164;5.430;2024-01-06T08:45:42;10.15;;;7.72;;
51618;SDS011;38518;53.164;5.430;2024-01-06T08:48:08;10.15;;;6.78;;
51618;SDS011;38518;53.164;5.430;2024-01-06T08:50:34;15.50;;;7.28;;
51618;SDS011;38518;53.164;5.430;2024-01-06T08:53:00;10.65;;;6.78;;
51618;SDS011;38518;53.164;5.430;2024-01-06T08:55:25;10.98;;;6.50;;
51618;SDS011;38518;53.164;5.430;2024-01-06T08:57:51;7.32;;;5.53;;
51618;SDS011;38518;53.164;5.430;2024-01-06T09:00:17;8.52;;;5.22;;
51618;SDS011;38518;53.164;5.430;2024-01-06T09:02:43;6.10;;;4.88;;
51618;SDS011;38518;53.164;5.430;2024-01-06T09:05:09;6.88;;;5.93;;
51618;SDS011;38518;53.164;5.430;2024-01-06T09:07:35;10.23;;;5.20;;
51618;SDS011;38518;53.164;5.430;2024-01-06T09:10:00;7.00;;;4.80;;
51618;SDS011;38518;53.164;5.430;2024-01-06T09:12:29;8.68;;;4.68;;
51618;SDS011;38518;53.164;5.430;2024-01-06T09:14:55;5.90;;;5.30;;
51618;SDS011;38518;53.164;5.430;2024-01-06T09:17:21;8.30;;;5.13;;
51618;SDS011;38518;53.164;5.430;2024-01-06T09:19:47;9.95;;;6.63;;
51618;SDS011;38518;53.164;5.430;2024-01-06T09:22:13;6.93;;;4.93;;
51618;SDS011;38518;53.164;5.430;2024-01-06T09:24:40;7.97;;;5.35;;
51618;SDS011;38518;53.164;5.430;2024-01-06T09:27:06;7.45;;;5.22;;
51618;SDS011;38518;53.164;5.430;2024-01-06T09:29:40;11.73;;;5.30;;
51618;SDS011;38518;53.164;5.430;2024-01-06T09:32:06;5.82;;;4.32;;
51618;SDS011;38518;53.164;5.430;2024-01-06T09:34:32;11.40;;;5.03;;
51618;SDS011;38518;53.164;5.430;2024-01-06T09:37:01;7.88;;;5.40;;
51618;SDS011;38518;53.164;5.430;2024-01-06T09:39:26;6.50;;;4.80;;
51618;SDS011;38518;53.164;5.430;2024-01-06T09:41:52;9.20;;;6.25;;
51618;SDS011;38518;53.164;5.430;2024-01-06T09:44:18;12.77;;;5.88;;
51618;SDS011;38518;53.164;5.430;2024-01-06T09:46:44;9.70;;;5.10;;
51618;SDS011;38518;53.164;5.430;2024-01-06T09:49:10;8.15;;;5.65;;
51618;SDS011;38518;53.164;5.430;2024-01-06T09:51:38;10.93;;;6.25;;
51618;SDS011;38518;53.164;5.430;2024-01-06T09:54:06;11.68;;;6.28;;
51618;SDS011;38518;53.164;5.430;2024-01-06T09:56:34;13.23;;;6.40;;
51618;SDS011;38518;53.164;5.430;2024-01-06T09:59:01;11.20;;;6.85;;
51618;SDS011;38518;53.164;5.430;2024-01-06T10:01:27;10.45;;;6.80;;
51618;SDS011;38518;53.164;5.430;2024-01-06T10:03:53;7.90;;;5.57;;
51618;SDS011;38518;53.164;5.430;2024-01-06T10:06:19;10.95;;;6.53;;
51618;SDS011;38518;53.164;5.430;2024-01-06T10:08:49;11.05;;;7.75;;
51618;SDS011;38518;53.164;5.430;2024-01-06T10:11:19;9.32;;;7.28;;
51618;SDS011;38518;53.164;5.430;2024-01-06T10:13:48;10.98;;;8.88;;
51618;SDS011;38518;53.164;5.430;2024-01-06T10:16:15;14.13;;;8.90;;
51618;SDS011;38518;53.164;5.430;2024-01-06T10:18:41;12.98;;;9.85;;
51618;SDS011;38518;53.164;5.430;2024-01-06T10:21:09;12.65;;;10.15;;
51618;SDS011;38518;53.164;5.430;2024-01-06T10:23:35;13.35;;;10.13;;
51618;SDS011;38518;53.164;5.430;2024-01-06T10:26:02;14.02;;;8.55;;
51618;SDS011;38518;53.164;5.430;2024-01-06T10:28:28;13.20;;;7.75;;
51618;SDS011;38518;53.164;5.430;2024-01-06T10:30:57;10.30;;;7.63;;
51618;SDS011;38518;53.164;5.430;2024-01-06T10:33:26;13.38;;;9.82;;
51618;SDS011;38518;53.164;5.430;2024-01-06T10:35:52;17.90;;;8.45;;
51618;SDS011;38518;53.164;5.430;2024-01-06T10:38:20;14.50;;;7.70;;
51618;SDS011;38518;53.164;5.430;2024-01-06T10:40:59;12.27;;;7.60;;
51618;SDS011;38518;53.164;5.430;2024-01-06T10:43:34;14.88;;;9.25;;
51618;SDS011;38518;53.164;5.430;2024-01-06T10:46:05;11.50;;;7.65;;
51618;SDS011;38518;53.164;5.430;2024-01-06T10:48:35;14.80;;;7.78;;
51618;SDS011;38518;53.164;5.430;2024-01-06T10:51:08;14.20;;;7.82;;
51618;SDS011;38518;53.164;5.430;2024-01-06T10:53:37;9.98;;;7.45;;
51618;SDS011;38518;53.164;5.430;2024-01-06T10:56:05;9.93;;;7.80;;
51618;SDS011;38518;53.164;5.430;2024-01-06T10:58:33;10.38;;;6.80;;
51618;SDS011;38518;53.164;5.430;2024-01-06T11:01:03;11.70;;;6.35;;
51618;SDS011;38518;53.164;5.430;2024-01-06T11:03:29;8.07;;;6.78;;
51618;SDS011;38518;53.164;5.430;2024-01-06T11:05:56;7.80;;;5.70;;
51618;SDS011;38518;53.164;5.430;2024-01-06T11:08:23;11.32;;;5.78;;
51618;SDS011;38518;53.164;5.430;2024-01-06T11:10:51;11.82;;;6.43;;
51618;SDS011;38518;53.164;5.430;2024-01-06T11:13:21;6.80;;;5.25;;
51618;SDS011;38518;53.164;5.430;2024-01-06T11:15:52;6.57;;;5.25;;
51618;SDS011;38518;53.164;5.430;2024-01-06T11:21:22;8.15;;;5.30;;
51618;SDS011;38518;53.164;5.430;2024-01-06T11:27:28;9.95;;;5.95;;
51618;SDS011;38518;53.164;5.430;2024-01-06T11:29:56;8.10;;;6.20;;
51618;SDS011;38518;53.164;5.430;2024-01-06T11:32:26;9.05;;;5.00;;
51618;SDS011;38518;53.164;5.430;2024-01-06T11:34:54;9.15;;;4.82;;
51618;SDS011;38518;53.164;5.430;2024-01-06T11:37:25;9.30;;;4.80;;
51618;SDS011;38518;53.164;5.430;2024-01-06T11:40:02;8.95;;;5.82;;
51618;SDS011;38518;53.164;5.430;2024-01-06T11:42:32;7.55;;;5.75;;
51618;SDS011;38518;53.164;5.430;2024-01-06T11:45:02;7.70;;;5.47;;
51618;SDS011;38518;53.164;5.430;2024-01-06T11:47:35;8.07;;;5.68;;
51618;SDS011;38518;53.164;5.430;2024-01-06T11:50:10;9.90;;;5.00;;
51618;SDS011;38518;53.164;5.430;2024-01-06T11:52:39;8.75;;;6.18;;
51618;SDS011;38518;53.164;5.430;2024-01-06T11:55:05;9.73;;;5.45;;
51618;SDS011;38518;53.164;5.430;2024-01-06T11:57:35;6.10;;;5.05;;
51618;SDS011;38518;53.164;5.430;2024-01-06T12:00:00;10.23;;;5.57;;
51618;SDS011;38518;53.164;5.430;2024-01-06T12:02:32;8.48;;;5.47;;
51618;SDS011;38518;53.164;5.430;2024-01-06T12:04:58;7.18;;;4.65;;
51618;SDS011;38518;53.164;5.430;2024-01-06T12:07:23;6.93;;;4.65;;
51618;SDS011;38518;53.164;5.430;2024-01-06T12:10:10;7.35;;;4.75;;
51618;SDS011;38518;53.164;5.430;2024-01-06T12:12:37;7.13;;;4.22;;
51618;SDS011;38518;53.164;5.430;2024-01-06T12:15:03;8.05;;;4.63;;
51618;SDS011;38518;53.164;5.430;2024-01-06T12:17:29;5.45;;;4.20;;
51618;SDS011;38518;53.164;5.430;2024-01-06T12:19:56;5.90;;;3.97;;
51618;SDS011;38518;53.164;5.430;2024-01-06T12:22:22;7.68;;;3.75;;
51618;SDS011;38518;53.164;5.430;2024-01-06T12:24:51;8.93;;;5.35;;
51618;SDS011;38518;53.164;5.430;2024-01-06T12:27:17;9.20;;;4.70;;
51618;SDS011;38518;53.164;5.430;2024-01-06T12:29:43;7.20;;;5.50;;
51618;SDS011;38518;53.164;5.430;2024-01-06T12:32:10;6.60;;;5.57;;
51618;SDS011;38518;53.164;5.430;2024-01-06T12:34:38;8.45;;;6.18;;
51618;SDS011;38518;53.164;5.430;2024-01-06T12:37:05;11.02;;;7.40;;
51618;SDS011;38518;53.164;5.430;2024-01-06T12:39:32;11.88;;;8.00;;
51618;SDS011;38518;53.164;5.430;2024-01-06T12:41:58;13.48;;;10.48;;
51618;SDS011;38518;53.164;5.430;2024-01-06T12:44:26;11.85;;;10.52;;
51618;SDS011;38518;53.164;5.430;2024-01-06T12:46:55;12.05;;;10.32;;
51618;SDS011;38518;53.164;5.430;2024-01-06T12:49:24;10.95;;;8.27;;
51618;SDS011;38518;53.164;5.430;2024-01-06T12:51:50;15.88;;;9.68;;
51618;SDS011;38518;53.164;5.430;2024-01-06T12:54:15;14.93;;;10.50;;
51618;SDS011;38518;53.164;5.430;2024-01-06T12:56:41;14.45;;;11.23;;
51618;SDS011;38518;53.164;5.430;2024-01-06T12:59:07;14.65;;;10.23;;
51618;SDS011;38518;53.164;5.430;2024-01-06T13:01:33;15.40;;;12.93;;
51618;SDS011;38518;53.164;5.430;2024-01-06T13:07:32;13.45;;;10.43;;
51618;SDS011;38518;53.164;5.430;2024-01-06T13:09:58;14.10;;;10.70;;
51618;SDS011;38518;53.164;5.430;2024-01-06T13:12:25;12.65;;;9.82;;
51618;SDS011;38518;53.164;5.430;2024-01-06T13:14:52;14.50;;;10.05;;
51618;SDS011;38518;53.164;5.430;2024-01-06T13:17:17;14.00;;;12.50;;
51618;SDS011;38518;53.164;5.430;2024-01-06T13:19:43;14.93;;;12.20;;
51618;SDS011;38518;53.164;5.430;2024-01-06T13:22:09;16.30;;;9.82;;
51618;SDS011;38518;53.164;5.430;2024-01-06T13:24:35;12.05;;;9.05;;
51618;SDS011;38518;53.164;5.430;2024-01-06T13:27:00;16.38;;;10.82;;
51618;SDS011;38518;53.164;5.430;2024-01-06T13:29:28;13.63;;;12.23;;
51618;SDS011;38518;53.164;5.430;2024-01-06T13:31:54;15.15;;;10.60;;
51618;SDS011;38518;53.164;5.430;2024-01-06T13:34:20;17.35;;;10.63;;
51618;SDS011;38518;53.164;5.430;2024-01-06T13:36:46;14.45;;;12.65;;
51618;SDS011;38518;53.164;5.430;2024-01-06T13:39:12;17.27;;;10.80;;
51618;SDS011;38518;53.164;5.430;2024-01-06T13:41:45;13.57;;;12.10;;
51618;SDS011;38518;53.164;5.430;2024-01-06T13:44:13;14.05;;;9.73;;
51618;SDS011;38518;53.164;5.430;2024-01-06T13:46:41;13.82;;;9.57;;
51618;SDS011;38518;53.164;5.430;2024-01-06T13:49:12;13.20;;;10.10;;
51618;SDS011;38518;53.164;5.430;2024-01-06T13:51:38;15.18;;;10.48;;
51618;SDS011;38518;53.164;5.430;2024-01-06T13:54:05;16.42;;;10.55;;
51618;SDS011;38518;53.164;5.430;2024-01-06T13:56:31;13.95;;;10.07;;
51618;SDS011;38518;53.164;5.430;2024-01-06T13:58:57;17.15;;;11.20;;
51618;SDS011;38518;53.164;5.430;2024-01-06T14:01:25;20.15;;;12.30;;
51618;SDS011;38518;53.164;5.430;2024-01-06T14:03:50;20.98;;;16.83;;
51618;SDS011;38518;53.164;5.430;2024-01-06T14:06:23;29.02;;;22.52;;
51618;SDS011;38518;53.164;5.430;2024-01-06T14:08:51;17.75;;;11.90;;
51618;SDS011;38518;53.164;5.430;2024-01-06T14:11:18;16.05;;;13.40;;
51618;SDS011;38518;53.164;5.430;2024-01-06T14:13:44;11.80;;;8.80;;
51618;SDS011;38518;53.164;5.430;2024-01-06T14:16:13;13.85;;;10.23;;
51618;SDS011;38518;53.164;5.430;2024-01-06T14:18:40;16.00;;;13.30;;
51618;SDS011;38518;53.164;5.430;2024-01-06T14:21:08;14.18;;;10.35;;
51618;SDS011;38518;53.164;5.430;2024-01-06T14:23:35;14.32;;;11.00;;
51618;SDS011;38518;53.164;5.430;2024-01-06T14:26:03;16.17;;;14.48;;
51618;SDS011;38518;53.164;5.430;2024-01-06T14:28:40;16.25;;;13.65;;
51618;SDS011;38518;53.164;5.430;2024-01-06T14:31:06;15.10;;;10.68;;
51618;SDS011;38518;53.164;5.430;2024-01-06T14:33:32;13.93;;;11.90;;
51618;SDS011;38518;53.164;5.430;2024-01-06T14:36:00;18.40;;;13.68;;
51618;SDS011;38518;53.164;5.430;2024-01-06T14:38:25;20.27;;;18.27;;
51618;SDS011;38518;53.164;5.430;2024-01-06T14:40:51;15.75;;;14.15;;